createdAt,value
2023-03-30T00:01:16.864Z,4.00
2023-03-30T00:03:44.912Z,3.30
2023-03-30T00:06:24.498Z,4.43
2023-03-30T00:08:52.582Z,4.30
2023-03-30T00:11:20.021Z,3.70
2023-03-30T00:13:48.587Z,3.63
2023-03-30T00:20:00.746Z,3.27
2023-03-30T00:22:28.404Z,3.50
2023-03-30T00:24:55.682Z,4.07
2023-03-30T00:27:22.993Z,3.90
2023-03-30T00:29:51.560Z,3.70
2023-03-30T00:32:18.844Z,3.60
2023-03-30T00:34:51.462Z,3.17
2023-03-30T00:37:18.822Z,3.67
2023-03-30T00:39:46.032Z,3.33
2023-03-30T00:42:14.779Z,3.00
2023-03-30T00:51:29.353Z,3.30
2023-03-30T00:54:00.311Z,3.20
2023-03-30T00:56:29.979Z,3.27
2023-03-30T00:58:57.320Z,3.43
2023-03-30T01:01:24.719Z,3.43
2023-03-30T01:04:08.534Z,3.17
2023-03-30T01:06:38.322Z,3.50
2023-03-30T01:09:05.605Z,3.40
2023-03-30T01:11:32.887Z,3.53
2023-03-30T01:14:18.617Z,2.93
2023-03-30T01:20:48.922Z,3.20
2023-03-30T01:23:41.713Z,3.07
2023-03-30T01:26:30.261Z,3.13
2023-03-30T01:28:59.065Z,3.50
2023-03-30T01:31:35.437Z,3.53
2023-03-30T01:34:29.088Z,3.27
2023-03-30T01:37:03.814Z,3.40
2023-03-30T01:39:39.472Z,4.07
2023-03-30T01:42:10.901Z,3.37
2023-03-30T01:45:00.383Z,3.40
2023-03-30T01:48:00.310Z,3.70
2023-03-30T01:50:53.615Z,3.50
2023-03-30T01:53:24.383Z,3.47
2023-03-30T01:55:56.066Z,3.40
2023-03-30T01:58:27.828Z,4.07
2023-03-30T02:00:55.491Z,3.17
2023-03-30T02:06:08.988Z,3.60
2023-03-30T02:08:37.160Z,3.30
2023-03-30T02:11:07.096Z,3.10
2023-03-30T02:13:37.639Z,4.23
2023-03-30T02:16:09.767Z,2.77
2023-03-30T02:19:11.120Z,3.07
2023-03-30T02:25:32.032Z,2.80
2023-03-30T02:28:00.828Z,2.80
2023-03-30T02:30:31.891Z,2.43
2023-03-30T02:32:59.525Z,3.20
2023-03-30T02:35:42.378Z,3.20
2023-03-30T02:41:04.764Z,3.20
2023-03-30T02:43:38.708Z,3.90
2023-03-30T02:46:13.862Z,4.30
2023-03-30T02:49:03.971Z,3.20
2023-03-30T02:55:20.376Z,3.40
2023-03-30T02:57:55.597Z,3.20
2023-03-30T03:00:45.460Z,3.10
2023-03-30T03:03:20.536Z,2.73
2023-03-30T03:05:48.699Z,3.03
2023-03-30T03:08:33.014Z,3.43
2023-03-30T03:11:01.210Z,2.93
2023-03-30T03:13:30.657Z,2.90
2023-03-30T03:15:59.498Z,3.03
2023-03-30T03:18:50.837Z,3.33
2023-03-30T03:21:46.435Z,2.83
2023-03-30T03:24:23.013Z,3.57
2023-03-30T03:27:10.562Z,4.37
2023-03-30T03:30:04.320Z,3.53
2023-03-30T03:32:39.418Z,3.60
2023-03-30T03:35:07.145Z,4.10
2023-03-30T03:37:50.421Z,3.47
2023-03-30T03:40:17.777Z,3.17
2023-03-30T03:42:45.102Z,3.77
2023-03-30T03:45:14.249Z,4.40
2023-03-30T03:48:17.497Z,4.13
2023-03-30T03:54:30.978Z,4.87
2023-03-30T03:56:59.451Z,4.80
2023-03-30T03:59:26.871Z,4.03
2023-03-30T04:01:54.268Z,5.13
2023-03-30T04:04:22.954Z,4.73
2023-03-30T04:06:50.237Z,3.77
2023-03-30T04:09:18.490Z,4.70
2023-03-30T04:12:08.367Z,5.30
2023-03-30T04:14:42.182Z,4.67
2023-03-30T04:17:33.366Z,4.83
2023-03-30T04:24:10.528Z,3.50
2023-03-30T04:26:56.163Z,5.57
2023-03-30T04:29:48.194Z,4.13
2023-03-30T04:32:33.880Z,4.57
2023-03-30T04:35:24.096Z,4.37
2023-03-30T04:38:22.390Z,4.90
2023-03-30T04:41:08.125Z,4.80
2023-03-30T04:44:13.520Z,5.80
2023-03-30T04:46:58.034Z,4.87
2023-03-30T04:50:09.380Z,4.10
2023-03-30T04:53:10.738Z,5.47
2023-03-30T04:56:16.044Z,4.33
2023-03-30T04:58:57.364Z,5.13
2023-03-30T05:01:42.524Z,4.80
2023-03-30T05:04:34.315Z,4.80
2023-03-30T05:10:03.474Z,3.97
2023-03-30T05:12:51.006Z,5.67
2023-03-30T05:15:53.493Z,6.17
2023-03-30T05:18:39.601Z,5.97
2023-03-30T05:21:17.049Z,5.03
2023-03-30T05:28:00.775Z,6.07
2023-03-30T05:30:56.580Z,6.57
2023-03-30T05:33:48.517Z,5.57
2023-03-30T05:36:35.995Z,6.03
2023-03-30T05:39:18.086Z,6.23
2023-03-30T05:42:10.694Z,5.80
2023-03-30T05:44:43.127Z,6.93
2023-03-30T05:47:29.502Z,4.57
2023-03-30T05:50:08.356Z,4.07
2023-03-30T05:52:57.630Z,6.67
2023-03-30T05:56:03.116Z,5.93
2023-03-30T05:58:49.211Z,5.00
2023-03-30T06:01:36.962Z,5.70
2023-03-30T06:04:04.493Z,5.67
2023-03-30T06:06:32.494Z,6.83
2023-03-30T06:09:01.566Z,7.10
2023-03-30T06:11:29.347Z,6.10
2023-03-30T06:14:08.097Z,7.67
2023-03-30T06:16:35.952Z,5.00
2023-03-30T06:19:03.667Z,6.00
2023-03-30T06:21:31.092Z,5.50
2023-03-30T06:24:17.469Z,6.10
2023-03-30T06:26:44.784Z,6.00
2023-03-30T06:29:12.274Z,5.20
2023-03-30T06:31:41.900Z,6.43
2023-03-30T06:34:32.392Z,6.63
2023-03-30T06:37:01.028Z,7.20
2023-03-30T06:39:29.652Z,5.63
2023-03-30T06:42:12.668Z,6.60
2023-03-30T06:45:03.828Z,5.97
2023-03-30T06:47:32.242Z,5.67
2023-03-30T06:49:59.707Z,5.33
2023-03-30T06:52:50.235Z,6.90
2023-03-30T06:55:18.955Z,6.33
2023-03-30T06:57:47.029Z,8.17
2023-03-30T07:00:15.149Z,6.40
2023-03-30T07:03:01.041Z,8.70
2023-03-30T07:05:35.427Z,5.07
2023-03-30T07:08:11.863Z,6.10
2023-03-30T07:10:46.877Z,4.50
2023-03-30T07:13:14.728Z,6.43
2023-03-30T07:15:42.672Z,7.20
2023-03-30T07:18:09.966Z,7.97
2023-03-30T07:20:37.309Z,7.20
2023-03-30T07:23:09.688Z,7.43
2023-03-30T07:25:37.014Z,9.03
2023-03-30T07:28:13.703Z,4.00
2023-03-30T07:30:41.353Z,6.50
2023-03-30T07:33:10.092Z,7.40
2023-03-30T07:35:37.408Z,7.33
2023-03-30T07:38:07.319Z,7.93
2023-03-30T07:40:38.568Z,7.20
2023-03-30T07:43:06.490Z,8.67
2023-03-30T07:45:35.475Z,8.47
2023-03-30T07:48:04.355Z,8.07
2023-03-30T07:50:31.743Z,7.90
2023-03-30T07:53:02.133Z,5.50
2023-03-30T07:55:29.669Z,7.40
2023-03-30T07:58:06.269Z,7.73
2023-03-30T08:00:50.800Z,6.93
2023-03-30T08:03:56.551Z,5.30
2023-03-30T08:06:24.600Z,6.43
2023-03-30T08:08:56.863Z,5.40
2023-03-30T08:11:24.555Z,7.73
2023-03-30T08:14:01.595Z,8.67
2023-03-30T08:16:30.253Z,7.50
2023-03-30T08:18:57.631Z,10.50
2023-03-30T08:21:25.310Z,7.33
2023-03-30T08:24:17.542Z,7.43
2023-03-30T08:27:04.671Z,7.63
2023-03-30T08:29:32.070Z,8.30
2023-03-30T08:32:00.790Z,6.20
2023-03-30T08:34:28.553Z,8.40
2023-03-30T08:36:55.890Z,8.33
2023-03-30T08:39:23.147Z,7.93
2023-03-30T08:42:23.857Z,8.63
2023-03-30T08:44:53.273Z,7.10
2023-03-30T08:47:26.530Z,7.93
2023-03-30T08:49:56.702Z,8.20
2023-03-30T08:52:39.631Z,6.13
2023-03-30T08:58:59.906Z,4.73
2023-03-30T09:01:31.798Z,7.57
2023-03-30T09:04:03.467Z,8.40
2023-03-30T09:06:39.342Z,6.97
2023-03-30T09:09:06.657Z,8.13
2023-03-30T09:14:51.999Z,8.47
2023-03-30T09:17:20.872Z,8.90
2023-03-30T09:19:54.478Z,8.60
2023-03-30T09:22:54.412Z,7.33
2023-03-30T09:28:34.208Z,7.50
2023-03-30T09:31:03.774Z,5.23
2023-03-30T09:33:34.181Z,6.80
2023-03-30T09:36:08.860Z,7.53
2023-03-30T09:38:37.535Z,8.37
2023-03-30T09:41:25.125Z,6.53
2023-03-30T09:43:52.492Z,7.27
2023-03-30T09:46:19.806Z,8.20
2023-03-30T09:48:47.781Z,7.97
2023-03-30T09:51:17.356Z,8.97
2023-03-30T09:57:41.766Z,8.57
2023-03-30T10:00:23.967Z,5.40
2023-03-30T10:02:56.051Z,4.70
2023-03-30T10:05:23.452Z,6.70
2023-03-30T10:07:55.573Z,7.20
2023-03-30T10:10:44.765Z,6.73
2023-03-30T10:13:14.168Z,5.30
2023-03-30T10:15:43.086Z,4.97
2023-03-30T10:18:22.029Z,7.07
2023-03-30T10:20:58.811Z,6.80
2023-03-30T10:27:22.763Z,7.20
2023-03-30T10:29:51.713Z,5.70
2023-03-30T10:32:20.309Z,5.03
2023-03-30T10:34:48.684Z,7.13
2023-03-30T10:37:17.595Z,7.67
2023-03-30T10:39:46.915Z,6.50
2023-03-30T10:42:39.045Z,7.23
2023-03-30T10:45:16.994Z,6.93
2023-03-30T10:47:50.087Z,5.00
2023-03-30T10:50:29.515Z,7.57
2023-03-30T11:00:06.647Z,6.80
2023-03-30T11:02:45.165Z,6.83
2023-03-30T11:05:15.290Z,5.27
2023-03-30T11:07:43.972Z,7.23
2023-03-30T11:10:31.600Z,6.50
2023-03-30T11:13:01.513Z,5.40
2023-03-30T11:15:31.069Z,6.00
2023-03-30T11:18:03.827Z,6.87
2023-03-30T11:27:48.960Z,6.70
2023-03-30T11:30:18.304Z,7.00
2023-03-30T11:32:47.785Z,6.93
2023-03-30T11:35:19.576Z,6.10
2023-03-30T11:37:49.384Z,7.90
2023-03-30T11:42:58.743Z,7.63
2023-03-30T11:45:35.436Z,7.70
2023-03-30T11:48:11.470Z,5.70
2023-03-30T11:57:25.038Z,4.23
2023-03-30T11:59:59.665Z,6.10
2023-03-30T12:02:30.214Z,8.33
2023-03-30T12:05:01.455Z,6.27
2023-03-30T12:07:32.414Z,7.80
2023-03-30T12:10:18.124Z,7.67
2023-03-30T12:12:47.601Z,6.73
2023-03-30T12:15:20.411Z,4.10
2023-03-30T12:17:50.817Z,9.50
2023-03-30T12:20:52.366Z,9.93
2023-03-30T12:27:06.188Z,7.27
2023-03-30T12:32:28.455Z,7.03
2023-03-30T12:34:57.273Z,8.77
2023-03-30T12:37:34.735Z,10.33
2023-03-30T12:40:19.063Z,6.50
2023-03-30T12:42:52.238Z,7.60
2023-03-30T12:45:30.497Z,7.83
2023-03-30T12:48:13.202Z,6.80
2023-03-30T12:51:04.622Z,5.37
2023-03-30T12:56:49.461Z,6.53
2023-03-30T12:59:23.776Z,6.73
2023-03-30T13:01:58.917Z,8.03
2023-03-30T13:04:29.481Z,6.73
2023-03-30T13:06:57.550Z,9.23
2023-03-30T13:09:44.007Z,8.37
2023-03-30T13:12:30.046Z,7.27
2023-03-30T13:14:58.367Z,7.73
2023-03-30T13:17:25.912Z,3.93
2023-03-30T13:26:45.225Z,6.20
2023-03-30T13:29:13.208Z,6.23
2023-03-30T13:32:01.368Z,7.77
2023-03-30T13:35:03.137Z,10.27
2023-03-30T13:37:40.083Z,7.03
2023-03-30T13:40:38.634Z,8.60
2023-03-30T13:43:21.714Z,9.87
2023-03-30T13:45:50.713Z,6.07
2023-03-30T13:48:37.474Z,7.73
2023-03-30T13:54:58.800Z,8.10
2023-03-30T13:57:30.662Z,7.50
2023-03-30T14:00:02.611Z,7.47
2023-03-30T14:02:43.131Z,7.27
2023-03-30T14:05:20.311Z,7.13
2023-03-30T14:08:00.031Z,7.93
2023-03-30T14:10:27.765Z,5.27
2023-03-30T14:12:56.195Z,7.00
2023-03-30T14:15:34.277Z,6.53
2023-03-30T14:18:21.635Z,6.53
2023-03-30T14:21:02.998Z,8.07
2023-03-30T14:23:54.343Z,7.13
2023-03-30T14:26:23.606Z,6.00
2023-03-30T14:28:54.512Z,7.60
2023-03-30T14:31:23.408Z,9.10
2023-03-30T14:33:50.856Z,7.20
2023-03-30T14:36:19.473Z,6.27
2023-03-30T14:39:08.465Z,7.00
2023-03-30T14:41:35.860Z,6.43
2023-03-30T14:44:04.390Z,6.10
2023-03-30T14:46:36.830Z,6.40
2023-03-30T14:55:48.816Z,6.23
2023-03-30T14:58:16.432Z,5.30
2023-03-30T15:00:43.940Z,5.20
2023-03-30T15:03:22.927Z,6.43
2023-03-30T15:06:04.073Z,6.37
2023-03-30T15:08:41.703Z,7.03
2023-03-30T15:11:11.188Z,3.87
2023-03-30T15:13:40.117Z,5.57
2023-03-30T15:16:08.095Z,6.37
2023-03-30T15:19:12.649Z,7.33
2023-03-30T15:25:03.208Z,6.60
2023-03-30T15:27:30.771Z,6.80
2023-03-30T15:30:01.265Z,7.27
2023-03-30T15:32:32.812Z,5.80
2023-03-30T15:35:05.053Z,6.73
2023-03-30T15:37:32.739Z,8.57
2023-03-30T15:42:49.759Z,7.23
2023-03-30T15:45:17.808Z,7.30
2023-03-30T15:47:45.188Z,7.57
2023-03-30T15:50:14.877Z,6.43
2023-03-30T15:52:43.507Z,5.77
2023-03-30T15:55:34.869Z,7.47
2023-03-30T15:58:18.549Z,6.80
2023-03-30T16:00:46.170Z,5.27
2023-03-30T16:03:13.814Z,6.03
2023-03-30T16:05:43.009Z,4.87
2023-03-30T16:08:10.661Z,6.73
2023-03-30T16:10:37.959Z,5.77
2023-03-30T16:15:55.313Z,7.77
2023-03-30T16:18:22.534Z,5.87
2023-03-30T16:20:51.214Z,6.40
2023-03-30T16:23:18.595Z,6.37
2023-03-30T16:25:45.826Z,6.33
2023-03-30T16:35:22.830Z,5.97
2023-03-30T16:37:51.846Z,6.03
2023-03-30T16:40:26.883Z,5.63
2023-03-30T16:42:54.302Z,4.60
2023-03-30T16:45:21.565Z,4.47
2023-03-30T16:47:48.791Z,5.90
2023-03-30T16:50:19.631Z,5.73
2023-03-30T16:52:46.904Z,5.20
2023-03-30T16:55:15.983Z,6.40
2023-03-30T16:57:43.281Z,7.03
2023-03-30T17:00:14.953Z,5.37
2023-03-30T17:02:42.309Z,4.63
2023-03-30T17:05:09.627Z,5.73
2023-03-30T17:07:36.871Z,5.73
2023-03-30T17:10:13.578Z,5.37
2023-03-30T17:12:42.412Z,5.77
2023-03-30T17:15:10.224Z,5.07
2023-03-30T17:17:37.665Z,5.83
2023-03-30T17:20:23.241Z,5.13
2023-03-30T17:22:50.953Z,4.40
2023-03-30T17:25:18.754Z,5.80
2023-03-30T17:27:47.532Z,6.07
2023-03-30T17:30:16.955Z,5.43
2023-03-30T17:32:44.276Z,6.73
2023-03-30T17:35:11.714Z,7.73
2023-03-30T17:37:39.539Z,5.20
2023-03-30T17:40:16.853Z,6.10
2023-03-30T17:42:44.322Z,6.83
2023-03-30T17:45:13.628Z,6.17
2023-03-30T17:47:41.299Z,6.13
2023-03-30T17:50:16.292Z,5.33
2023-03-30T17:52:43.546Z,5.13
2023-03-30T17:55:10.891Z,6.67
2023-03-30T17:57:38.222Z,6.93
2023-03-30T18:00:07.830Z,6.50
2023-03-30T18:02:36.599Z,5.63
2023-03-30T18:05:03.885Z,6.20
2023-03-30T18:07:33.589Z,6.13
2023-03-30T18:10:00.995Z,6.30
2023-03-30T18:12:28.277Z,6.37
2023-03-30T18:14:55.540Z,6.67
2023-03-30T18:17:25.328Z,6.87
2023-03-30T18:19:54.099Z,6.90
2023-03-30T18:22:21.446Z,6.80
2023-03-30T18:24:48.763Z,5.90
2023-03-30T18:27:15.994Z,5.30
2023-03-30T18:29:43.452Z,6.37
2023-03-30T18:32:10.701Z,7.33
2023-03-30T18:34:37.964Z,6.30
2023-03-30T18:37:06.557Z,6.10
2023-03-30T18:39:33.802Z,5.83
2023-03-30T18:42:01.024Z,6.00
2023-03-30T18:44:28.379Z,7.33
2023-03-30T18:46:55.647Z,6.63
2023-03-30T18:49:22.905Z,5.27
2023-03-30T18:51:50.094Z,5.27
2023-03-30T18:54:18.717Z,6.13
2023-03-30T18:56:45.968Z,7.87
2023-03-30T18:59:13.246Z,6.13
2023-03-30T19:01:40.488Z,6.47
2023-03-30T19:04:07.736Z,7.47
2023-03-30T19:06:34.960Z,6.40
2023-03-30T19:09:02.156Z,8.87
2023-03-30T19:11:30.730Z,5.77
2023-03-30T19:13:57.947Z,6.07
2023-03-30T19:16:25.182Z,8.67
2023-03-30T19:18:52.430Z,7.13
2023-03-30T19:21:19.809Z,8.23
2023-03-30T19:23:47.214Z,6.93
2023-03-30T19:26:14.604Z,6.40
2023-03-30T19:28:43.224Z,7.30
2023-03-30T19:31:11.345Z,7.90
2023-03-30T19:33:39.229Z,8.77
2023-03-30T19:36:06.845Z,6.83
2023-03-30T19:38:34.510Z,6.60
2023-03-30T19:41:02.582Z,8.53
2023-03-30T19:43:30.366Z,7.67
2023-03-30T19:45:58.974Z,5.23
2023-03-30T19:48:26.216Z,7.43
2023-03-30T19:50:53.422Z,7.27
2023-03-30T19:53:20.677Z,9.57
2023-03-30T19:55:47.944Z,7.20
2023-03-30T19:58:15.193Z,7.77
2023-03-30T20:00:42.449Z,7.07
2023-03-30T20:03:12.362Z,6.77
2023-03-30T20:05:40.031Z,7.33
2023-03-30T20:08:20.961Z,7.93
2023-03-30T20:10:51.022Z,7.57
2023-03-30T20:13:18.393Z,7.27
2023-03-30T20:15:46.035Z,7.47
2023-03-30T20:18:14.944Z,9.80
2023-03-30T20:20:42.260Z,6.90
2023-03-30T20:23:09.491Z,6.10
2023-03-30T20:25:36.792Z,6.77
2023-03-30T20:28:04.077Z,7.93
2023-03-30T20:30:31.273Z,6.47
2023-03-30T20:33:07.260Z,5.73
2023-03-30T20:35:37.334Z,8.27
2023-03-30T20:38:04.670Z,6.50
2023-03-30T20:40:32.693Z,7.30
2023-03-30T20:43:00.004Z,7.57
2023-03-30T20:45:27.323Z,9.83
2023-03-30T20:47:54.724Z,5.97
2023-03-30T20:50:22.192Z,7.90
2023-03-30T20:52:50.870Z,9.13
2023-03-30T20:55:18.227Z,7.03
2023-03-30T20:57:45.430Z,8.20
2023-03-30T21:00:13.412Z,9.20
2023-03-30T21:02:40.666Z,8.20
2023-03-30T21:05:08.231Z,8.43
2023-03-30T21:07:35.542Z,7.37
2023-03-30T21:10:04.360Z,7.47
2023-03-30T21:12:31.699Z,7.23
2023-03-30T21:14:58.920Z,8.63
2023-03-30T21:17:26.227Z,6.53
2023-03-30T21:19:53.501Z,7.17
2023-03-30T21:22:20.780Z,6.63
2023-03-30T21:24:47.997Z,7.50
2023-03-30T21:27:16.890Z,6.87
2023-03-30T21:29:44.127Z,7.57
2023-03-30T21:32:11.380Z,6.83
2023-03-30T21:34:38.604Z,5.77
2023-03-30T21:37:05.930Z,6.57
2023-03-30T21:39:33.350Z,7.10
2023-03-30T21:42:00.599Z,7.53
2023-03-30T21:44:29.165Z,5.90
2023-03-30T21:46:56.590Z,7.10
2023-03-30T21:49:23.904Z,6.13
2023-03-30T21:51:51.116Z,7.43
2023-03-30T21:54:18.467Z,6.80
2023-03-30T21:56:46.173Z,9.37
2023-03-30T21:59:13.434Z,6.47
2023-03-30T22:01:42.061Z,7.33
2023-03-30T22:04:09.608Z,7.57
2023-03-30T22:06:36.876Z,6.93
2023-03-30T22:09:04.202Z,7.57
2023-03-30T22:11:31.454Z,6.30
2023-03-30T22:13:58.686Z,6.60
2023-03-30T22:16:26.586Z,5.97
2023-03-30T22:18:55.384Z,6.50
2023-03-30T22:21:23.563Z,5.67
2023-03-30T22:23:50.776Z,6.00
2023-03-30T22:26:18.079Z,7.27
2023-03-30T22:28:45.286Z,6.73
2023-03-30T22:31:13.597Z,5.77
2023-03-30T22:34:09.026Z,5.20
2023-03-30T22:37:01.994Z,6.20
2023-03-30T22:39:30.683Z,6.17
2023-03-30T22:41:57.925Z,5.63
2023-03-30T22:44:25.193Z,7.37
2023-03-30T22:46:52.438Z,6.83
2023-03-30T22:49:25.797Z,5.23
2023-03-30T22:51:53.288Z,6.30
2023-03-30T22:54:20.758Z,6.37
2023-03-30T22:56:49.548Z,5.87
2023-03-30T22:59:16.909Z,5.17
2023-03-30T23:01:44.506Z,6.93
2023-03-30T23:04:11.853Z,6.40
2023-03-30T23:06:39.224Z,5.13
2023-03-30T23:09:06.646Z,6.13
2023-03-30T23:11:33.919Z,5.57
2023-03-30T23:14:02.486Z,5.30
2023-03-30T23:16:29.682Z,5.47
2023-03-30T23:18:56.902Z,5.03
2023-03-30T23:21:24.129Z,4.80
2023-03-30T23:23:51.504Z,5.13
2023-03-30T23:26:18.670Z,5.80
2023-03-30T23:28:45.970Z,5.57
2023-03-30T23:31:15.399Z,6.17
2023-03-30T23:36:25.012Z,5.10
2023-03-30T23:38:52.269Z,5.37
2023-03-30T23:41:20.076Z,5.17
2023-03-30T23:43:47.387Z,4.57
2023-03-30T23:46:16.345Z,4.87
2023-03-30T23:52:31.126Z,4.53
2023-03-30T23:54:58.443Z,4.67
2023-03-30T23:57:25.861Z,4.73
2023-03-30T23:59:53.278Z,4.67
